sensor_id;sensor_type;location;lat;lon;timestamp;temperature;humidity
12911;DHT22;6523;49.758;6.120;2023-07-20T00:00:27;13.80;99.90
12911;DHT22;6523;49.758;6.120;2023-07-20T00:02:54;13.60;99.90
12911;DHT22;6523;49.758;6.120;2023-07-20T00:05:35;13.40;99.90
12911;DHT22;6523;49.758;6.120;2023-07-20T00:08:00;13.20;99.90
12911;DHT22;6523;49.758;6.120;2023-07-20T00:10:26;13.20;99.90
12911;DHT22;6523;49.758;6.120;2023-07-20T00:12:51;13.20;99.90
12911;DHT22;6523;49.758;6.120;2023-07-20T00:15:17;13.20;99.90
12911;DHT22;6523;49.758;6.120;2023-07-20T00:17:42;13.20;99.90
12911;DHT22;6523;49.758;6.120;2023-07-20T00:20:10;13.30;99.90
12911;DHT22;6523;49.758;6.120;2023-07-20T00:22:36;13.20;99.90
12911;DHT22;6523;49.758;6.120;2023-07-20T00:25:02;13.10;99.90
12911;DHT22;6523;49.758;6.120;2023-07-20T00:27:28;13.20;99.90
12911;DHT22;6523;49.758;6.120;2023-07-20T00:29:53;13.40;99.90
12911;DHT22;6523;49.758;6.120;2023-07-20T00:32:19;13.30;99.90
12911;DHT22;6523;49.758;6.120;2023-07-20T00:34:44;13.10;99.90
12911;DHT22;6523;49.758;6.120;2023-07-20T00:37:10;12.90;99.90
12911;DHT22;6523;49.758;6.120;2023-07-20T00:39:36;12.90;99.90
12911;DHT22;6523;49.758;6.120;2023-07-20T00:42:01;13.00;99.90
12911;DHT22;6523;49.758;6.120;2023-07-20T00:44:27;12.90;99.90
12911;DHT22;6523;49.758;6.120;2023-07-20T00:46:52;12.90;99.90
12911;DHT22;6523;49.758;6.120;2023-07-20T00:49:18;12.70;99.90
12911;DHT22;6523;49.758;6.120;2023-07-20T00:51:46;12.80;99.90
12911;DHT22;6523;49.758;6.120;2023-07-20T00:54:13;12.80;99.90
12911;DHT22;6523;49.758;6.120;2023-07-20T00:56:39;12.70;99.90
12911;DHT22;6523;49.758;6.120;2023-07-20T00:59:05;12.70;99.90
12911;DHT22;6523;49.758;6.120;2023-07-20T01:01:31;12.70;99.90
12911;DHT22;6523;49.758;6.120;2023-07-20T01:03:56;12.70;99.90
12911;DHT22;6523;49.758;6.120;2023-07-20T01:06:33;12.70;99.90
12911;DHT22;6523;49.758;6.120;2023-07-20T01:09:16;12.80;99.90
12911;DHT22;6523;49.758;6.120;2023-07-20T01:12:07;12.70;99.90
12911;DHT22;6523;49.758;6.120;2023-07-20T01:14:34;12.60;99.90
12911;DHT22;6523;49.758;6.120;2023-07-20T01:17:00;12.80;99.90
12911;DHT22;6523;49.758;6.120;2023-07-20T01:19:25;12.60;99.90
12911;DHT22;6523;49.758;6.120;2023-07-20T01:32:52;12.70;99.90
12911;DHT22;6523;49.758;6.120;2023-07-20T01:35:20;12.70;99.90
12911;DHT22;6523;49.758;6.120;2023-07-20T01:37:47;12.70;99.90
12911;DHT22;6523;49.758;6.120;2023-07-20T01:40:14;12.50;99.90
12911;DHT22;6523;49.758;6.120;2023-07-20T01:42:44;12.50;99.90
12911;DHT22;6523;49.758;6.120;2023-07-20T01:45:11;12.50;99.90
12911;DHT22;6523;49.758;6.120;2023-07-20T01:47:36;12.50;99.90
12911;DHT22;6523;49.758;6.120;2023-07-20T01:50:02;12.60;99.90
12911;DHT22;6523;49.758;6.120;2023-07-20T01:52:28;12.70;99.90
12911;DHT22;6523;49.758;6.120;2023-07-20T01:54:53;12.60;99.90
12911;DHT22;6523;49.758;6.120;2023-07-20T01:57:19;12.70;99.90
12911;DHT22;6523;49.758;6.120;2023-07-20T01:59:45;12.60;99.90
12911;DHT22;6523;49.758;6.120;2023-07-20T02:02:10;12.50;99.90
12911;DHT22;6523;49.758;6.120;2023-07-20T02:04:36;12.50;99.90
12911;DHT22;6523;49.758;6.120;2023-07-20T02:07:01;12.30;99.90
12911;DHT22;6523;49.758;6.120;2023-07-20T02:09:27;12.30;99.90
12911;DHT22;6523;49.758;6.120;2023-07-20T02:11:52;12.30;99.90
12911;DHT22;6523;49.758;6.120;2023-07-20T02:14:18;12.30;99.90
12911;DHT22;6523;49.758;6.120;2023-07-20T02:16:43;12.40;99.90
12911;DHT22;6523;49.758;6.120;2023-07-20T02:19:09;12.30;99.90
12911;DHT22;6523;49.758;6.120;2023-07-20T02:21:35;12.30;99.90
12911;DHT22;6523;49.758;6.120;2023-07-20T02:24:00;12.10;99.90
12911;DHT22;6523;49.758;6.120;2023-07-20T02:26:26;12.00;99.90
12911;DHT22;6523;49.758;6.120;2023-07-20T02:28:51;11.90;99.90
12911;DHT22;6523;49.758;6.120;2023-07-20T02:31:17;11.90;99.90
12911;DHT22;6523;49.758;6.120;2023-07-20T02:33:42;11.80;99.90
12911;DHT22;6523;49.758;6.120;2023-07-20T02:36:08;11.80;99.90
12911;DHT22;6523;49.758;6.120;2023-07-20T02:38:33;11.80;99.90
12911;DHT22;6523;49.758;6.120;2023-07-20T02:40:59;11.90;99.90
12911;DHT22;6523;49.758;6.120;2023-07-20T02:43:24;11.80;99.90
12911;DHT22;6523;49.758;6.120;2023-07-20T02:45:50;11.90;99.90
12911;DHT22;6523;49.758;6.120;2023-07-20T02:48:16;11.90;99.90
12911;DHT22;6523;49.758;6.120;2023-07-20T02:50:43;12.00;99.90
12911;DHT22;6523;49.758;6.120;2023-07-20T02:53:08;12.00;99.90
12911;DHT22;6523;49.758;6.120;2023-07-20T02:55:34;11.90;99.90
12911;DHT22;6523;49.758;6.120;2023-07-20T02:57:59;11.80;99.90
12911;DHT22;6523;49.758;6.120;2023-07-20T03:00:25;11.90;99.90
12911;DHT22;6523;49.758;6.120;2023-07-20T03:02:51;11.70;99.90
12911;DHT22;6523;49.758;6.120;2023-07-20T03:05:21;11.70;99.90
12911;DHT22;6523;49.758;6.120;2023-07-20T03:07:47;11.70;99.90
12911;DHT22;6523;49.758;6.120;2023-07-20T03:10:13;11.50;99.90
12911;DHT22;6523;49.758;6.120;2023-07-20T03:12:38;11.30;99.90
12911;DHT22;6523;49.758;6.120;2023-07-20T03:15:04;11.30;99.90
12911;DHT22;6523;49.758;6.120;2023-07-20T03:17:30;11.40;99.90
12911;DHT22;6523;49.758;6.120;2023-07-20T03:19:55;11.40;99.90
12911;DHT22;6523;49.758;6.120;2023-07-20T03:22:21;11.40;99.90
12911;DHT22;6523;49.758;6.120;2023-07-20T03:24:47;11.30;99.90
12911;DHT22;6523;49.758;6.120;2023-07-20T03:27:13;11.20;99.90
12911;DHT22;6523;49.758;6.120;2023-07-20T03:29:38;11.40;99.90
12911;DHT22;6523;49.758;6.120;2023-07-20T03:32:04;11.50;99.90
12911;DHT22;6523;49.758;6.120;2023-07-20T03:34:30;11.50;99.90
12911;DHT22;6523;49.758;6.120;2023-07-20T03:36:56;11.40;99.90
12911;DHT22;6523;49.758;6.120;2023-07-20T03:39:22;11.30;99.90
12911;DHT22;6523;49.758;6.120;2023-07-20T03:41:48;11.20;99.90
12911;DHT22;6523;49.758;6.120;2023-07-20T03:44:13;11.20;99.90
12911;DHT22;6523;49.758;6.120;2023-07-20T03:46:39;11.20;99.90
12911;DHT22;6523;49.758;6.120;2023-07-20T03:49:04;11.40;99.90
12911;DHT22;6523;49.758;6.120;2023-07-20T03:51:31;11.30;99.90
12911;DHT22;6523;49.758;6.120;2023-07-20T03:53:57;11.10;99.90
12911;DHT22;6523;49.758;6.120;2023-07-20T03:56:23;11.00;99.90
12911;DHT22;6523;49.758;6.120;2023-07-20T03:58:49;10.90;99.90
12911;DHT22;6523;49.758;6.120;2023-07-20T04:01:15;10.90;99.90
12911;DHT22;6523;49.758;6.120;2023-07-20T04:03:42;11.00;99.90
12911;DHT22;6523;49.758;6.120;2023-07-20T04:06:08;11.00;99.90
12911;DHT22;6523;49.758;6.120;2023-07-20T04:08:34;11.10;99.90
12911;DHT22;6523;49.758;6.120;2023-07-20T04:11:01;11.00;99.90
12911;DHT22;6523;49.758;6.120;2023-07-20T04:13:27;11.00;99.90
12911;DHT22;6523;49.758;6.120;2023-07-20T04:15:53;11.00;99.90
12911;DHT22;6523;49.758;6.120;2023-07-20T04:18:18;11.00;99.90
12911;DHT22;6523;49.758;6.120;2023-07-20T04:20:45;11.10;99.90
12911;DHT22;6523;49.758;6.120;2023-07-20T04:23:10;11.10;99.90
12911;DHT22;6523;49.758;6.120;2023-07-20T04:25:36;11.00;99.90
12911;DHT22;6523;49.758;6.120;2023-07-20T04:28:05;11.10;99.90
12911;DHT22;6523;49.758;6.120;2023-07-20T04:30:34;11.40;99.90
12911;DHT22;6523;49.758;6.120;2023-07-20T04:33:00;11.30;99.90
12911;DHT22;6523;49.758;6.120;2023-07-20T04:35:52;11.20;99.90
12911;DHT22;6523;49.758;6.120;2023-07-20T04:38:18;11.00;99.90
12911;DHT22;6523;49.758;6.120;2023-07-20T04:40:45;11.10;99.90
12911;DHT22;6523;49.758;6.120;2023-07-20T04:43:11;11.20;99.90
12911;DHT22;6523;49.758;6.120;2023-07-20T04:45:36;11.20;99.90
12911;DHT22;6523;49.758;6.120;2023-07-20T04:48:02;11.20;99.90
12911;DHT22;6523;49.758;6.120;2023-07-20T04:50:27;11.50;99.90
12911;DHT22;6523;49.758;6.120;2023-07-20T04:52:53;11.50;99.90
12911;DHT22;6523;49.758;6.120;2023-07-20T04:55:19;11.40;99.90
12911;DHT22;6523;49.758;6.120;2023-07-20T04:57:44;11.50;99.90
12911;DHT22;6523;49.758;6.120;2023-07-20T05:00:10;11.60;99.90
12911;DHT22;6523;49.758;6.120;2023-07-20T05:02:38;11.50;99.90
12911;DHT22;6523;49.758;6.120;2023-07-20T05:05:04;11.70;99.90
12911;DHT22;6523;49.758;6.120;2023-07-20T05:07:31;11.60;99.90
12911;DHT22;6523;49.758;6.120;2023-07-20T05:09:57;11.80;99.90
12911;DHT22;6523;49.758;6.120;2023-07-20T05:12:23;11.80;99.90
12911;DHT22;6523;49.758;6.120;2023-07-20T05:14:48;11.80;99.90
12911;DHT22;6523;49.758;6.120;2023-07-20T05:17:14;11.70;99.90
12911;DHT22;6523;49.758;6.120;2023-07-20T05:19:39;11.70;99.90
12911;DHT22;6523;49.758;6.120;2023-07-20T05:22:05;11.70;99.90
12911;DHT22;6523;49.758;6.120;2023-07-20T05:24:31;11.90;99.90
12911;DHT22;6523;49.758;6.120;2023-07-20T05:26:57;12.00;99.90
12911;DHT22;6523;49.758;6.120;2023-07-20T05:29:23;12.10;99.90
12911;DHT22;6523;49.758;6.120;2023-07-20T05:31:49;12.10;99.90
12911;DHT22;6523;49.758;6.120;2023-07-20T05:34:15;12.30;99.90
12911;DHT22;6523;49.758;6.120;2023-07-20T05:36:52;12.40;99.90
12911;DHT22;6523;49.758;6.120;2023-07-20T05:39:18;12.50;99.90
12911;DHT22;6523;49.758;6.120;2023-07-20T05:41:43;12.60;99.90
12911;DHT22;6523;49.758;6.120;2023-07-20T05:44:09;12.60;99.90
12911;DHT22;6523;49.758;6.120;2023-07-20T05:46:34;12.80;99.90
12911;DHT22;6523;49.758;6.120;2023-07-20T05:49:00;13.10;99.90
12911;DHT22;6523;49.758;6.120;2023-07-20T05:51:27;13.30;99.90
12911;DHT22;6523;49.758;6.120;2023-07-20T05:53:52;13.50;99.90
12911;DHT22;6523;49.758;6.120;2023-07-20T05:56:18;13.50;99.90
12911;DHT22;6523;49.758;6.120;2023-07-20T05:58:43;13.40;99.90
12911;DHT22;6523;49.758;6.120;2023-07-20T06:01:09;13.60;99.90
12911;DHT22;6523;49.758;6.120;2023-07-20T06:03:35;13.70;99.90
12911;DHT22;6523;49.758;6.120;2023-07-20T06:06:01;13.70;99.90
12911;DHT22;6523;49.758;6.120;2023-07-20T06:08:28;13.70;99.90
12911;DHT22;6523;49.758;6.120;2023-07-20T06:10:54;13.80;99.90
12911;DHT22;6523;49.758;6.120;2023-07-20T06:13:20;14.20;99.90
12911;DHT22;6523;49.758;6.120;2023-07-20T06:15:45;14.30;99.90
12911;DHT22;6523;49.758;6.120;2023-07-20T06:18:12;14.40;99.90
12911;DHT22;6523;49.758;6.120;2023-07-20T06:20:38;14.40;99.90
12911;DHT22;6523;49.758;6.120;2023-07-20T06:23:04;14.60;99.90
12911;DHT22;6523;49.758;6.120;2023-07-20T06:25:29;14.30;99.90
12911;DHT22;6523;49.758;6.120;2023-07-20T06:27:55;14.30;99.90
12911;DHT22;6523;49.758;6.120;2023-07-20T06:30:21;14.30;99.90
12911;DHT22;6523;49.758;6.120;2023-07-20T06:32:47;14.20;99.90
12911;DHT22;6523;49.758;6.120;2023-07-20T06:35:13;14.20;99.90
12911;DHT22;6523;49.758;6.120;2023-07-20T06:37:39;14.40;99.90
12911;DHT22;6523;49.758;6.120;2023-07-20T06:40:05;14.70;99.90
12911;DHT22;6523;49.758;6.120;2023-07-20T06:42:31;14.70;99.90
12911;DHT22;6523;49.758;6.120;2023-07-20T06:44:57;14.70;99.90
12911;DHT22;6523;49.758;6.120;2023-07-20T06:47:23;14.60;99.90
12911;DHT22;6523;49.758;6.120;2023-07-20T06:49:48;14.50;99.90
12911;DHT22;6523;49.758;6.120;2023-07-20T06:52:15;14.60;99.90
12911;DHT22;6523;49.758;6.120;2023-07-20T06:54:40;14.80;99.90
12911;DHT22;6523;49.758;6.120;2023-07-20T06:57:06;14.90;99.90
12911;DHT22;6523;49.758;6.120;2023-07-20T06:59:31;14.90;99.90
12911;DHT22;6523;49.758;6.120;2023-07-20T07:01:57;14.80;99.90
12911;DHT22;6523;49.758;6.120;2023-07-20T07:04:22;14.90;99.90
12911;DHT22;6523;49.758;6.120;2023-07-20T07:06:48;14.90;99.90
12911;DHT22;6523;49.758;6.120;2023-07-20T07:09:14;15.20;99.90
12911;DHT22;6523;49.758;6.120;2023-07-20T07:11:39;15.20;99.90
12911;DHT22;6523;49.758;6.120;2023-07-20T07:14:05;15.20;99.90
12911;DHT22;6523;49.758;6.120;2023-07-20T07:16:31;15.10;99.90
12911;DHT22;6523;49.758;6.120;2023-07-20T07:18:56;15.40;99.90
12911;DHT22;6523;49.758;6.120;2023-07-20T07:21:22;15.40;99.90
12911;DHT22;6523;49.758;6.120;2023-07-20T07:23:47;15.30;99.90
12911;DHT22;6523;49.758;6.120;2023-07-20T07:26:13;15.60;99.90
12911;DHT22;6523;49.758;6.120;2023-07-20T07:28:39;15.60;99.90
12911;DHT22;6523;49.758;6.120;2023-07-20T07:31:05;15.70;99.90
12911;DHT22;6523;49.758;6.120;2023-07-20T07:33:31;15.70;99.90
12911;DHT22;6523;49.758;6.120;2023-07-20T07:35:57;15.80;99.90
12911;DHT22;6523;49.758;6.120;2023-07-20T07:38:23;16.20;99.90
12911;DHT22;6523;49.758;6.120;2023-07-20T07:40:48;16.20;99.90
12911;DHT22;6523;49.758;6.120;2023-07-20T07:43:14;16.20;99.90
12911;DHT22;6523;49.758;6.120;2023-07-20T07:45:40;16.20;99.90
12911;DHT22;6523;49.758;6.120;2023-07-20T07:48:06;16.10;99.90
12911;DHT22;6523;49.758;6.120;2023-07-20T07:50:33;16.20;99.90
12911;DHT22;6523;49.758;6.120;2023-07-20T07:52:58;16.30;99.90
12911;DHT22;6523;49.758;6.120;2023-07-20T07:55:24;16.10;99.90
12911;DHT22;6523;49.758;6.120;2023-07-20T07:57:52;16.20;99.90
12911;DHT22;6523;49.758;6.120;2023-07-20T08:00:18;16.30;99.90
12911;DHT22;6523;49.758;6.120;2023-07-20T08:02:45;16.30;99.90
12911;DHT22;6523;49.758;6.120;2023-07-20T08:05:12;16.20;99.90
12911;DHT22;6523;49.758;6.120;2023-07-20T08:07:38;16.20;99.90
12911;DHT22;6523;49.758;6.120;2023-07-20T08:10:04;16.10;99.90
12911;DHT22;6523;49.758;6.120;2023-07-20T08:12:30;16.30;99.90
12911;DHT22;6523;49.758;6.120;2023-07-20T08:14:55;16.50;99.90
12911;DHT22;6523;49.758;6.120;2023-07-20T08:17:21;16.50;99.90
12911;DHT22;6523;49.758;6.120;2023-07-20T08:19:46;16.80;99.90
12911;DHT22;6523;49.758;6.120;2023-07-20T08:22:12;17.00;99.90
12911;DHT22;6523;49.758;6.120;2023-07-20T08:24:41;17.10;99.90
12911;DHT22;6523;49.758;6.120;2023-07-20T08:27:08;16.90;99.90
12911;DHT22;6523;49.758;6.120;2023-07-20T08:29:34;17.00;99.90
12911;DHT22;6523;49.758;6.120;2023-07-20T08:32:00;17.10;99.90
12911;DHT22;6523;49.758;6.120;2023-07-20T08:34:25;17.20;99.90
12911;DHT22;6523;49.758;6.120;2023-07-20T08:36:51;17.40;99.90
12911;DHT22;6523;49.758;6.120;2023-07-20T08:39:16;17.10;99.90
12911;DHT22;6523;49.758;6.120;2023-07-20T08:41:43;17.20;99.90
12911;DHT22;6523;49.758;6.120;2023-07-20T08:44:10;17.60;99.90
12911;DHT22;6523;49.758;6.120;2023-07-20T08:46:37;17.70;99.90
12911;DHT22;6523;49.758;6.120;2023-07-20T08:49:03;18.00;99.90
12911;DHT22;6523;49.758;6.120;2023-07-20T08:51:30;18.20;99.90
12911;DHT22;6523;49.758;6.120;2023-07-20T08:53:57;18.40;99.90
12911;DHT22;6523;49.758;6.120;2023-07-20T08:56:25;18.10;99.90
12911;DHT22;6523;49.758;6.120;2023-07-20T08:58:55;18.30;99.90
12911;DHT22;6523;49.758;6.120;2023-07-20T09:01:22;18.60;99.90
12911;DHT22;6523;49.758;6.120;2023-07-20T09:03:47;19.30;99.90
12911;DHT22;6523;49.758;6.120;2023-07-20T09:06:14;19.50;99.90
12911;DHT22;6523;49.758;6.120;2023-07-20T09:08:43;19.60;99.90
12911;DHT22;6523;49.758;6.120;2023-07-20T09:11:12;20.30;99.90
12911;DHT22;6523;49.758;6.120;2023-07-20T09:13:39;20.80;99.90
12911;DHT22;6523;49.758;6.120;2023-07-20T09:16:04;20.00;99.90
12911;DHT22;6523;49.758;6.120;2023-07-20T09:18:31;20.40;99.90
12911;DHT22;6523;49.758;6.120;2023-07-20T09:21:02;20.60;99.90
12911;DHT22;6523;49.758;6.120;2023-07-20T09:23:38;20.20;99.90
12911;DHT22;6523;49.758;6.120;2023-07-20T09:26:10;20.30;99.90
12911;DHT22;6523;49.758;6.120;2023-07-20T09:28:51;20.40;99.90
12911;DHT22;6523;49.758;6.120;2023-07-20T09:31:18;20.40;99.90
12911;DHT22;6523;49.758;6.120;2023-07-20T09:33:44;19.90;99.90
12911;DHT22;6523;49.758;6.120;2023-07-20T09:36:10;21.00;99.90
12911;DHT22;6523;49.758;6.120;2023-07-20T09:38:37;21.60;99.90
12911;DHT22;6523;49.758;6.120;2023-07-20T09:41:05;21.70;99.90
12911;DHT22;6523;49.758;6.120;2023-07-20T09:43:33;21.00;99.90
12911;DHT22;6523;49.758;6.120;2023-07-20T09:45:59;21.00;99.90
12911;DHT22;6523;49.758;6.120;2023-07-20T09:48:25;21.10;99.90
12911;DHT22;6523;49.758;6.120;2023-07-20T09:50:52;20.70;99.90
12911;DHT22;6523;49.758;6.120;2023-07-20T09:53:18;21.10;99.90
12911;DHT22;6523;49.758;6.120;2023-07-20T09:55:45;22.20;99.90
12911;DHT22;6523;49.758;6.120;2023-07-20T09:58:12;21.50;99.90
12911;DHT22;6523;49.758;6.120;2023-07-20T10:00:39;21.40;99.90
12911;DHT22;6523;49.758;6.120;2023-07-20T10:03:05;22.60;99.90
12911;DHT22;6523;49.758;6.120;2023-07-20T10:05:36;22.40;99.90
12911;DHT22;6523;49.758;6.120;2023-07-20T10:08:04;22.10;99.90
12911;DHT22;6523;49.758;6.120;2023-07-20T10:10:33;22.30;99.90
12911;DHT22;6523;49.758;6.120;2023-07-20T10:13:01;22.30;99.90
12911;DHT22;6523;49.758;6.120;2023-07-20T10:15:42;23.00;99.90
12911;DHT22;6523;49.758;6.120;2023-07-20T10:18:38;22.80;99.90
12911;DHT22;6523;49.758;6.120;2023-07-20T10:21:00;22.50;99.90
12911;DHT22;6523;49.758;6.120;2023-07-20T10:23:28;22.20;99.90
12911;DHT22;6523;49.758;6.120;2023-07-20T10:25:54;22.00;99.90
12911;DHT22;6523;49.758;6.120;2023-07-20T10:28:21;22.30;99.90
12911;DHT22;6523;49.758;6.120;2023-07-20T10:30:49;22.30;99.90
12911;DHT22;6523;49.758;6.120;2023-07-20T10:33:17;22.40;99.90
12911;DHT22;6523;49.758;6.120;2023-07-20T10:35:57;23.30;99.90
12911;DHT22;6523;49.758;6.120;2023-07-20T10:41:18;22.70;99.90
12911;DHT22;6523;49.758;6.120;2023-07-20T10:43:44;23.20;99.90
12911;DHT22;6523;49.758;6.120;2023-07-20T10:46:13;23.30;99.90
12911;DHT22;6523;49.758;6.120;2023-07-20T10:49:01;23.00;99.90
12911;DHT22;6523;49.758;6.120;2023-07-20T10:51:28;24.40;99.90
12911;DHT22;6523;49.758;6.120;2023-07-20T10:53:55;24.90;99.90
12911;DHT22;6523;49.758;6.120;2023-07-20T10:56:26;24.10;99.90
12911;DHT22;6523;49.758;6.120;2023-07-20T10:58:58;23.40;99.90
12911;DHT22;6523;49.758;6.120;2023-07-20T11:01:28;24.00;99.90
12911;DHT22;6523;49.758;6.120;2023-07-20T11:03:58;23.60;99.90
12911;DHT22;6523;49.758;6.120;2023-07-20T11:09:10;23.00;99.90
12911;DHT22;6523;49.758;6.120;2023-07-20T11:11:38;23.10;99.90
12911;DHT22;6523;49.758;6.120;2023-07-20T11:14:05;23.10;99.90
12911;DHT22;6523;49.758;6.120;2023-07-20T11:16:45;23.70;99.90
12911;DHT22;6523;49.758;6.120;2023-07-20T11:19:24;23.80;99.90
12911;DHT22;6523;49.758;6.120;2023-07-20T11:21:53;23.80;99.10
12911;DHT22;6523;49.758;6.120;2023-07-20T11:24:19;24.10;90.90
12911;DHT22;6523;49.758;6.120;2023-07-20T11:26:50;23.70;91.80
12911;DHT22;6523;49.758;6.120;2023-07-20T11:29:17;24.20;90.90
12911;DHT22;6523;49.758;6.120;2023-07-20T11:31:43;24.50;79.10
12911;DHT22;6523;49.758;6.120;2023-07-20T11:34:11;24.50;64.20
12911;DHT22;6523;49.758;6.120;2023-07-20T11:36:42;23.60;62.60
12911;DHT22;6523;49.758;6.120;2023-07-20T11:39:14;24.40;75.30
12911;DHT22;6523;49.758;6.120;2023-07-20T11:41:44;24.70;49.20
12911;DHT22;6523;49.758;6.120;2023-07-20T11:44:10;23.70;47.70
12911;DHT22;6523;49.758;6.120;2023-07-20T11:46:39;23.50;38.30
12911;DHT22;6523;49.758;6.120;2023-07-20T11:49:05;23.40;37.20
12911;DHT22;6523;49.758;6.120;2023-07-20T11:51:31;24.40;40.60
12911;DHT22;6523;49.758;6.120;2023-07-20T11:53:58;24.70;23.60
12911;DHT22;6523;49.758;6.120;2023-07-20T11:56:25;24.80;18.70
12911;DHT22;6523;49.758;6.120;2023-07-20T11:58:54;24.60;24.90
12911;DHT22;6523;49.758;6.120;2023-07-20T12:01:20;25.50;22.90
12911;DHT22;6523;49.758;6.120;2023-07-20T12:03:48;25.10;16.80
12911;DHT22;6523;49.758;6.120;2023-07-20T12:06:13;25.50;20.80
12911;DHT22;6523;49.758;6.120;2023-07-20T12:08:40;26.00;13.10
12911;DHT22;6523;49.758;6.120;2023-07-20T12:11:07;25.50;8.90
12911;DHT22;6523;49.758;6.120;2023-07-20T12:13:44;26.00;11.10
12911;DHT22;6523;49.758;6.120;2023-07-20T12:16:16;26.20;1.00
12911;DHT22;6523;49.758;6.120;2023-07-20T12:18:43;25.60;1.00
12911;DHT22;6523;49.758;6.120;2023-07-20T12:21:10;25.30;1.00
12911;DHT22;6523;49.758;6.120;2023-07-20T12:23:39;25.80;1.00
12911;DHT22;6523;49.758;6.120;2023-07-20T12:26:09;25.60;1.00
12911;DHT22;6523;49.758;6.120;2023-07-20T12:28:41;26.10;1.00
12911;DHT22;6523;49.758;6.120;2023-07-20T12:31:10;25.40;1.00
12911;DHT22;6523;49.758;6.120;2023-07-20T12:33:37;25.70;1.00
12911;DHT22;6523;49.758;6.120;2023-07-20T12:36:03;26.20;1.00
12911;DHT22;6523;49.758;6.120;2023-07-20T12:38:29;26.90;1.00
12911;DHT22;6523;49.758;6.120;2023-07-20T12:40:56;26.40;1.00
12911;DHT22;6523;49.758;6.120;2023-07-20T12:43:22;26.70;1.00
12911;DHT22;6523;49.758;6.120;2023-07-20T12:45:47;26.00;1.00
12911;DHT22;6523;49.758;6.120;2023-07-20T12:48:13;25.60;1.00
12911;DHT22;6523;49.758;6.120;2023-07-20T12:50:39;24.90;1.00
12911;DHT22;6523;49.758;6.120;2023-07-20T12:53:04;25.90;1.00
12911;DHT22;6523;49.758;6.120;2023-07-20T12:55:30;26.50;1.00
12911;DHT22;6523;49.758;6.120;2023-07-20T12:57:55;26.80;1.00
12911;DHT22;6523;49.758;6.120;2023-07-20T13:00:21;26.90;1.00
12911;DHT22;6523;49.758;6.120;2023-07-20T13:02:50;26.90;1.00
12911;DHT22;6523;49.758;6.120;2023-07-20T13:05:15;27.80;1.00
12911;DHT22;6523;49.758;6.120;2023-07-20T13:07:42;27.90;1.00
12911;DHT22;6523;49.758;6.120;2023-07-20T13:10:08;27.40;1.00
12911;DHT22;6523;49.758;6.120;2023-07-20T13:12:35;26.60;1.00
12911;DHT22;6523;49.758;6.120;2023-07-20T13:15:03;26.80;1.00
12911;DHT22;6523;49.758;6.120;2023-07-20T13:17:34;27.00;1.00
12911;DHT22;6523;49.758;6.120;2023-07-20T13:20:00;27.50;1.00
12911;DHT22;6523;49.758;6.120;2023-07-20T13:22:25;26.60;1.00
12911;DHT22;6523;49.758;6.120;2023-07-20T13:24:52;26.50;1.00
12911;DHT22;6523;49.758;6.120;2023-07-20T13:27:18;26.90;1.00
12911;DHT22;6523;49.758;6.120;2023-07-20T13:29:43;26.80;1.00
12911;DHT22;6523;49.758;6.120;2023-07-20T13:32:13;26.00;1.00
12911;DHT22;6523;49.758;6.120;2023-07-20T13:34:38;24.80;1.00
12911;DHT22;6523;49.758;6.120;2023-07-20T13:37:04;24.90;1.00
12911;DHT22;6523;49.758;6.120;2023-07-20T13:39:30;24.20;1.00
12911;DHT22;6523;49.758;6.120;2023-07-20T13:41:56;24.00;1.00
12911;DHT22;6523;49.758;6.120;2023-07-20T13:44:21;25.00;1.00
12911;DHT22;6523;49.758;6.120;2023-07-20T13:46:48;25.10;1.00
12911;DHT22;6523;49.758;6.120;2023-07-20T13:49:13;24.50;1.00
12911;DHT22;6523;49.758;6.120;2023-07-20T13:51:40;25.10;1.00
12911;DHT22;6523;49.758;6.120;2023-07-20T13:54:06;25.30;1.00
12911;DHT22;6523;49.758;6.120;2023-07-20T13:56:32;25.30;1.00
12911;DHT22;6523;49.758;6.120;2023-07-20T13:58:57;24.80;1.00
12911;DHT22;6523;49.758;6.120;2023-07-20T14:01:23;24.60;1.00
12911;DHT22;6523;49.758;6.120;2023-07-20T14:03:50;24.80;1.00
12911;DHT22;6523;49.758;6.120;2023-07-20T14:06:16;26.00;1.00
12911;DHT22;6523;49.758;6.120;2023-07-20T14:08:41;25.60;1.00
12911;DHT22;6523;49.758;6.120;2023-07-20T14:11:07;24.90;1.00
12911;DHT22;6523;49.758;6.120;2023-07-20T14:13:33;25.20;1.00
12911;DHT22;6523;49.758;6.120;2023-07-20T14:15:58;25.80;1.00
12911;DHT22;6523;49.758;6.120;2023-07-20T14:18:24;25.80;1.00
12911;DHT22;6523;49.758;6.120;2023-07-20T14:20:50;26.60;1.00
12911;DHT22;6523;49.758;6.120;2023-07-20T14:23:15;26.80;1.00
12911;DHT22;6523;49.758;6.120;2023-07-20T14:25:41;26.90;1.00
12911;DHT22;6523;49.758;6.120;2023-07-20T14:28:07;27.50;1.00
12911;DHT22;6523;49.758;6.120;2023-07-20T14:30:33;27.90;1.00
12911;DHT22;6523;49.758;6.120;2023-07-20T14:32:58;27.20;1.00
12911;DHT22;6523;49.758;6.120;2023-07-20T14:35:24;27.10;1.00
12911;DHT22;6523;49.758;6.120;2023-07-20T14:37:49;25.90;1.00
12911;DHT22;6523;49.758;6.120;2023-07-20T14:40:15;26.10;1.00
12911;DHT22;6523;49.758;6.120;2023-07-20T14:42:41;26.80;1.00
12911;DHT22;6523;49.758;6.120;2023-07-20T14:45:07;27.10;1.00
12911;DHT22;6523;49.758;6.120;2023-07-20T14:47:33;25.50;1.00
12911;DHT22;6523;49.758;6.120;2023-07-20T14:50:01;26.10;1.00
12911;DHT22;6523;49.758;6.120;2023-07-20T14:52:28;25.80;1.00
12911;DHT22;6523;49.758;6.120;2023-07-20T14:54:55;25.30;1.00
12911;DHT22;6523;49.758;6.120;2023-07-20T14:57:20;25.30;1.00
12911;DHT22;6523;49.758;6.120;2023-07-20T14:59:49;24.60;1.00
12911;DHT22;6523;49.758;6.120;2023-07-20T15:02:14;26.40;1.00
12911;DHT22;6523;49.758;6.120;2023-07-20T15:04:50;26.70;1.00
12911;DHT22;6523;49.758;6.120;2023-07-20T15:07:17;25.30;1.00
12911;DHT22;6523;49.758;6.120;2023-07-20T15:09:44;24.80;1.00
12911;DHT22;6523;49.758;6.120;2023-07-20T15:12:10;24.60;1.00
12911;DHT22;6523;49.758;6.120;2023-07-20T15:14:35;25.70;1.00
12911;DHT22;6523;49.758;6.120;2023-07-20T15:17:01;27.10;1.00
12911;DHT22;6523;49.758;6.120;2023-07-20T15:19:28;26.90;1.00
12911;DHT22;6523;49.758;6.120;2023-07-20T15:21:53;26.50;1.00
12911;DHT22;6523;49.758;6.120;2023-07-20T15:24:19;26.50;1.00
12911;DHT22;6523;49.758;6.120;2023-07-20T15:26:44;27.90;1.00
12911;DHT22;6523;49.758;6.120;2023-07-20T15:29:10;27.30;1.00
12911;DHT22;6523;49.758;6.120;2023-07-20T15:31:36;26.50;1.00
12911;DHT22;6523;49.758;6.120;2023-07-20T15:34:01;25.80;1.00
12911;DHT22;6523;49.758;6.120;2023-07-20T15:36:27;25.70;1.00
12911;DHT22;6523;49.758;6.120;2023-07-20T15:38:52;26.40;1.00
12911;DHT22;6523;49.758;6.120;2023-07-20T15:41:18;25.90;1.00
12911;DHT22;6523;49.758;6.120;2023-07-20T15:43:43;26.30;1.00
12911;DHT22;6523;49.758;6.120;2023-07-20T15:48:44;25.80;1.00
12911;DHT22;6523;49.758;6.120;2023-07-20T15:51:10;25.60;1.00
12911;DHT22;6523;49.758;6.120;2023-07-20T15:53:35;25.30;1.00
12911;DHT22;6523;49.758;6.120;2023-07-20T15:56:01;24.90;1.00
12911;DHT22;6523;49.758;6.120;2023-07-20T15:58:27;24.80;1.00
12911;DHT22;6523;49.758;6.120;2023-07-20T16:00:56;24.90;1.00
12911;DHT22;6523;49.758;6.120;2023-07-20T16:03:22;25.70;1.00
12911;DHT22;6523;49.758;6.120;2023-07-20T16:05:50;26.30;1.00